Time;durP1;ratioP1;P1;durP2;ratioP2;P2;SDS_P1;SDS_P2;PMS_P1;PMS_P2;Temp;Humidity;BMP_temperature;BMP_pressure;BME280_temperature;BME280_humidity;BME280_pressure;Samples;Min_cycle;Max_cycle;Signal;HPM_P1;HPM_P2
2022/03/07 00:00:22;;;;;;;27.58;12.10;;;;;;;1.04;81.31;94941.88;5036104;28;20056;-83
2022/03/07 00:02:48;;;;;;;23.90;10.90;;;;;;;0.53;80.98;94869.22;5038645;28;20032;-83
2022/03/07 00:05:15;;;;;;;23.88;10.60;;;;;;;0.38;81.30;94859.16;5056114;28;20044;-83
2022/03/07 00:07:41;;;;;;;17.92;8.98;;;;;;;0.02;81.03;94750.41;5038538;28;20032;-83
2022/03/07 00:10:07;;;;;;;20.20;9.88;;;;;;;-0.29;80.50;94701.84;5054304;28;20036;-83
2022/03/07 00:12:32;;;;;;;22.17;9.90;;;;;;;0.47;80.58;94826.50;5054376;28;20080;-83
2022/03/07 00:14:58;;;;;;;21.73;10.02;;;;;;;0.65;80.74;94857.81;5037152;28;20491;-83
2022/03/07 00:17:23;;;;;;;22.42;9.40;;;;;;;-1.05;80.09;94585.06;5037305;28;20029;-83
2022/03/07 00:19:49;;;;;;;19.58;10.00;;;;;;;0.28;80.41;94812.69;5055509;28;20063;-83
2022/03/07 00:22:14;;;;;;;21.77;9.75;;;;;;;0.55;80.62;94813.16;5037141;28;20029;-83
2022/03/07 00:24:40;;;;;;;23.00;10.63;;;;;;;0.46;80.76;94780.56;5055112;28;20039;-84
2022/03/07 00:27:05;;;;;;;22.00;10.73;;;;;;;1.10;80.23;94884.34;5055638;28;20032;-83
2022/03/07 00:29:31;;;;;;;26.38;11.10;;;;;;;0.64;80.39;94800.63;5055273;28;20024;-83
2022/03/07 00:31:57;;;;;;;27.88;11.65;;;;;;;0.51;80.02;94779.91;5037320;28;20090;-83
2022/03/07 00:34:23;;;;;;;24.42;11.80;;;;;;;1.03;80.80;94875.00;5054550;28;20497;-83
2022/03/07 00:36:48;;;;;;;26.67;12.50;;;;;;;0.68;81.19;94854.78;5053914;28;20040;-83
2022/03/07 00:39:14;;;;;;;25.77;12.68;;;;;;;-0.18;81.12;94695.91;5053446;28;20058;-83
2022/03/07 00:41:39;;;;;;;28.38;13.82;;;;;;;-0.22;80.63;94705.16;5037265;28;20498;-83
2022/03/07 00:44:05;;;;;;;27.80;13.05;;;;;;;0.09;81.11;94745.13;5055294;28;20040;-83
2022/03/07 00:46:30;;;;;;;27.85;13.50;;;;;;;0.40;81.19;94799.72;5036931;28;20113;-83
2022/03/07 00:48:56;;;;;;;20.70;10.57;;;;;;;0.20;81.01;94754.81;5054929;28;20064;-83
2022/03/07 00:51:35;;;;;;;22.32;9.97;;;;;;;1.03;81.68;94911.56;3139864;28;10002793;-83
2022/03/07 00:54:00;;;;;;;22.85;11.38;;;;;;;0.56;81.58;94817.38;2612981;28;10001964;-83
2022/03/07 00:56:26;;;;;;;23.55;11.18;;;;;;;0.28;81.88;94786.63;5054895;28;20385;-83
2022/03/07 00:58:51;;;;;;;20.02;10.38;;;;;;;0.62;81.21;94821.72;5054949;28;20040;-83
2022/03/07 01:01:17;;;;;;;21.65;10.80;;;;;;;0.93;81.00;94838.97;5054271;28;20036;-84
2022/03/07 01:03:43;;;;;;;20.70;10.68;;;;;;;1.30;80.56;94899.72;5053749;28;20041;-83
2022/03/07 01:06:09;;;;;;;19.58;10.38;;;;;;;-0.83;80.41;94567.22;5053381;28;20032;-83
2022/03/07 01:08:34;;;;;;;22.80;10.73;;;;;;;0.38;81.25;94802.53;5054553;28;20045;-83
2022/03/07 01:10:59;;;;;;;24.38;11.13;;;;;;;1.22;80.69;94900.03;5054886;28;20057;-83
2022/03/07 01:13:25;;;;;;;17.88;10.48;;;;;;;0.87;80.75;94852.91;5053884;28;20048;-83
2022/03/07 01:15:51;;;;;;;23.02;11.23;;;;;;;0.76;80.71;94848.47;5053133;28;20041;-83
2022/03/07 01:18:16;;;;;;;17.92;10.32;;;;;;;0.35;81.02;94804.78;5054011;28;20048;-83
2022/03/07 01:20:42;;;;;;;20.75;11.07;;;;;;;-0.18;80.43;94705.53;5052672;28;20155;-83
2022/03/07 01:23:08;;;;;;;22.15;9.73;;;;;;;0.09;81.12;94784.22;5052889;28;20406;-84
2022/03/07 01:25:34;;;;;;;21.45;11.80;;;;;;;0.11;81.65;94764.75;5036641;28;20442;-83
2022/03/07 01:27:59;;;;;;;20.00;11.10;;;;;;;0.21;81.51;94775.47;5036048;28;20036;-83
2022/03/07 01:30:25;;;;;;;19.35;10.60;;;;;;;0.45;82.31;94877.34;5052992;28;20040;-83
2022/03/07 01:32:53;;;;;;;23.63;10.95;;;;;;;-0.29;82.57;94761.78;5053030;28;20029;-83
2022/03/07 01:35:19;;;;;;;20.23;9.93;;;;;;;-0.43;82.82;94737.66;5048628;28;20057;-83
2022/03/07 01:37:46;;;;;;;19.10;10.40;;;;;;;0.23;82.93;94830.03;5034810;28;20128;-83
2022/03/07 01:40:11;;;;;;;18.92;10.18;;;;;;;0.85;82.63;94890.69;5049321;28;20484;-84
2022/03/07 01:42:37;;;;;;;18.17;9.77;;;;;;;0.74;82.31;94866.16;5049218;28;20036;-83
2022/03/07 01:45:14;;;;;;;17.25;9.82;;;;;;;0.44;81.96;94810.53;5034331;28;20466;-84
2022/03/07 01:47:40;;;;;;;14.18;8.40;;;;;;;0.30;81.51;94760.31;5032913;28;20526;-83
2022/03/07 01:50:08;;;;;;;18.83;8.98;;;;;;;0.66;82.08;94833.31;5033765;28;20037;-83
2022/03/07 01:52:37;;;;;;;17.80;9.45;;;;;;;-0.29;81.27;94662.75;5033798;28;20044;-83
2022/03/07 01:55:04;;;;;;;18.88;9.70;;;;;;;-0.35;81.60;94683.69;5048968;28;20071;-82
2022/03/07 01:57:30;;;;;;;16.67;8.70;;;;;;;0.28;81.47;94784.00;5034089;28;20040;-83
2022/03/07 01:59:56;;;;;;;15.27;9.30;;;;;;;0.12;81.77;94750.69;5032366;28;20041;-83
2022/03/07 02:02:22;;;;;;;13.75;8.27;;;;;;;0.13;81.71;94757.50;5033788;28;20057;-83
2022/03/07 02:04:47;;;;;;;18.75;9.27;;;;;;;0.84;81.36;94855.97;5032239;28;20118;-83
2022/03/07 02:07:13;;;;;;;14.52;9.05;;;;;;;0.25;81.37;94776.63;5033922;28;20040;-82
2022/03/07 02:09:38;;;;;;;14.50;8.63;;;;;;;0.14;81.17;94755.72;5034029;28;20056;-82
2022/03/07 02:12:05;;;;;;;13.98;8.10;;;;;;;-0.12;81.16;94697.63;5032957;28;20419;-82
2022/03/07 02:14:30;;;;;;;16.23;8.45;;;;;;;0.71;81.50;94845.69;5034329;28;20096;-83
2022/03/07 02:16:56;;;;;;;13.10;8.07;;;;;;;0.42;81.27;94792.47;5034526;28;20037;-83
2022/03/07 02:19:21;;;;;;;16.60;8.35;;;;;;;-0.17;80.72;94694.91;5035036;28;20042;-82
2022/03/07 02:21:49;;;;;;;16.40;9.15;;;;;;;0.83;80.83;94835.31;5033241;28;20088;-82
2022/03/07 02:24:17;;;;;;;15.93;9.60;;;;;;;0.81;80.80;94832.91;5034783;28;20465;-82
2022/03/07 02:26:43;;;;;;;14.15;8.43;;;;;;;0.27;80.68;94771.97;5033496;28;20091;-82
2022/03/07 02:29:09;;;;;;;16.08;9.00;;;;;;;0.70;80.98;94823.22;5033556;28;20404;-82
2022/03/07 02:31:36;;;;;;;17.25;8.80;;;;;;;0.53;80.47;94804.78;5049764;28;20611;-83
2022/03/07 02:34:05;;;;;;;17.83;9.77;;;;;;;0.62;81.16;94808.66;5034958;28;20030;-83
2022/03/07 02:36:31;;;;;;;16.75;8.93;;;;;;;1.12;81.37;94887.53;5054653;28;20046;-82
2022/03/07 02:38:56;;;;;;;18.00;9.57;;;;;;;1.17;80.96;94887.66;5053738;28;20085;-83
2022/03/07 02:41:22;;;;;;;17.48;9.68;;;;;;;0.43;80.82;94790.66;5054240;28;20029;-82
2022/03/07 02:43:48;;;;;;;15.25;8.48;;;;;;;0.66;80.94;94815.03;5053945;28;20481;-82
2022/03/07 02:46:14;;;;;;;15.82;9.27;;;;;;;1.23;80.60;94893.81;5054089;28;20037;-82
2022/03/07 02:48:39;;;;;;;17.17;8.90;;;;;;;1.22;80.55;94879.16;5035946;28;20036;-82
2022/03/07 02:51:10;;;;;;;22.20;9.60;;;;;;;0.34;80.57;94767.47;3210124;28;10021368;-82
2022/03/07 02:53:36;;;;;;;15.15;8.77;;;;;;;0.72;80.60;94803.72;2264418;28;10002013;-83
2022/03/07 02:56:01;;;;;;;13.05;7.50;;;;;;;0.62;80.27;94784.38;5036572;28;20499;-83
2022/03/07 02:58:27;;;;;;;14.10;7.85;;;;;;;0.69;80.38;94791.09;5054630;28;20032;-82
2022/03/07 03:00:52;;;;;;;14.13;8.23;;;;;;;0.37;79.93;94740.16;5037641;28;20029;-83
2022/03/07 03:03:18;;;;;;;14.63;8.27;;;;;;;1.03;80.29;94835.84;5059034;28;20522;-83
2022/03/07 03:05:43;;;;;;;14.13;7.32;;;;;;;0.57;80.78;94821.59;5058013;28;20052;-83
2022/03/07 03:08:09;;;;;;;12.77;6.95;;;;;;;1.27;80.28;94889.75;5058162;28;20060;-83
2022/03/07 03:10:34;;;;;;;15.75;6.97;;;;;;;0.29;80.36;94756.91;5041088;28;20040;-82
2022/03/07 03:13:00;;;;;;;10.40;6.55;;;;;;;0.50;80.01;94791.38;5041016;28;20044;-83
2022/03/07 03:15:25;;;;;;;13.82;7.43;;;;;;;0.98;80.23;94865.25;5059854;28;20515;-82
2022/03/07 03:17:51;;;;;;;13.20;6.63;;;;;;;-0.04;80.12;94726.03;5058265;28;20055;-83
2022/03/07 03:20:16;;;;;;;13.23;6.72;;;;;;;1.22;80.76;94897.44;5059228;28;20483;-83
2022/03/07 03:22:44;;;;;;;11.50;7.07;;;;;;;0.74;79.83;94819.97;5059040;28;20033;-83
2022/03/07 03:25:11;;;;;;;14.98;7.45;;;;;;;0.48;79.67;94765.50;5059212;28;20033;-83
2022/03/07 03:27:38;;;;;;;13.90;7.60;;;;;;;1.16;80.10;94900.94;5058566;28;20048;-83
2022/03/07 03:30:06;;;;;;;11.50;7.13;;;;;;;0.49;81.14;94834.94;5059629;28;20037;-82
2022/03/07 03:32:32;;;;;;;12.98;7.95;;;;;;;0.38;81.10;94788.72;5059732;28;20128;-83
2022/03/07 03:34:58;;;;;;;13.75;8.23;;;;;;;0.43;80.90;94807.09;5059875;28;20091;-82
2022/03/07 03:37:26;;;;;;;14.25;8.00;;;;;;;0.16;80.97;94784.94;5046418;28;20047;-83
2022/03/07 03:39:53;;;;;;;16.40;7.80;;;;;;;0.13;81.36;94780.19;5062592;28;20101;-84
2022/03/07 03:42:19;;;;;;;12.57;7.65;;;;;;;0.84;81.75;94894.34;5046233;28;20504;-83
2022/03/07 03:44:45;;;;;;;14.73;8.85;;;;;;;0.22;81.51;94792.72;5046492;28;20033;-84
2022/03/07 03:47:10;;;;;;;13.70;8.38;;;;;;;1.08;80.97;94906.47;5046461;28;20400;-83
2022/03/07 03:49:35;;;;;;;13.23;8.25;;;;;;;0.86;80.70;94856.53;5046754;28;20040;-83
2022/03/07 03:52:01;;;;;;;13.88;8.23;;;;;;;0.33;80.42;94778.13;5065399;28;20048;-83
2022/03/07 03:54:27;;;;;;;15.27;8.93;;;;;;;1.09;80.63;94897.63;5071666;28;20096;-83
2022/03/07 03:56:52;;;;;;;17.30;8.88;;;;;;;0.34;80.46;94774.50;5075060;28;20033;-83
2022/03/07 03:59:18;;;;;;;18.70;9.07;;;;;;;1.14;80.34;94906.38;5048628;28;20040;-81
2022/03/07 04:01:47;;;;;;;15.75;8.50;;;;;;;0.68;80.66;94843.53;5060920;28;20483;-81
2022/03/07 04:04:13;;;;;;;15.30;8.32;;;;;;;0.39;80.92;94795.50;5061203;28;20060;-81
2022/03/07 04:06:40;;;;;;;14.52;8.35;;;;;;;0.61;80.44;94820.09;5060065;28;20048;-81
2022/03/07 04:09:24;;;;;;;16.65;9.32;;;;;;;1.00;80.87;94907.56;5041358;28;20459;-82
2022/03/07 04:11:50;;;;;;;15.77;9.40;;;;;;;0.51;80.57;94817.25;5060222;28;20441;-82
2022/03/07 04:14:16;;;;;;;16.50;9.07;;;;;;;1.03;80.49;94903.72;5058508;28;20033;-81
2022/03/07 04:16:42;;;;;;;15.32;9.32;;;;;;;0.37;80.13;94797.56;5059590;28;20124;-82
2022/03/07 04:19:10;;;;;;;16.40;9.50;;;;;;;0.59;80.04;94805.72;5059333;28;20504;-82
2022/03/07 04:21:38;;;;;;;18.02;9.18;;;;;;;0.90;80.62;94902.09;5042332;28;20039;-82
2022/03/07 04:24:05;;;;;;;15.57;9.65;;;;;;;0.64;80.62;94843.16;5059302;28;20036;-82
2022/03/07 04:26:30;;;;;;;16.48;9.82;;;;;;;1.13;80.23;94904.00;5040690;28;20040;-82
2022/03/07 04:28:56;;;;;;;19.40;10.48;;;;;;;1.18;80.60;94911.97;5059389;28;20041;-81
2022/03/07 04:31:22;;;;;;;20.50;10.65;;;;;;;0.76;80.73;94862.28;5058421;28;20095;-82
2022/03/07 04:33:48;;;;;;;19.17;10.80;;;;;;;0.94;80.04;94861.47;5058492;28;20533;-82
2022/03/07 04:36:14;;;;;;;18.25;10.75;;;;;;;0.53;80.30;94799.56;5041333;28;20069;-82
2022/03/07 04:38:39;;;;;;;17.08;9.13;;;;;;;0.30;79.91;94752.50;5059754;28;20465;-82
2022/03/07 04:41:05;;;;;;;17.90;10.60;;;;;;;0.55;80.07;94826.22;5041491;28;20036;-83
2022/03/07 04:43:30;;;;;;;18.88;9.88;;;;;;;0.56;79.82;94793.09;5059969;28;20407;-82
2022/03/07 04:45:55;;;;;;;18.15;9.27;;;;;;;-0.30;79.67;94662.97;5041538;28;20036;-82
2022/03/07 04:48:21;;;;;;;17.58;10.25;;;;;;;0.30;79.85;94778.59;5059450;28;20052;-82
2022/03/07 04:51:06;;;;;;;16.57;9.23;;;;;;;0.17;80.44;94784.72;4234820;28;10002038;-82
2022/03/07 04:53:32;;;;;;;16.17;9.52;;;;;;;0.73;80.45;94898.47;1739822;28;10002076;-82
2022/03/07 04:55:57;;;;;;;16.17;9.50;;;;;;;0.62;80.13;94845.19;5058806;28;20498;-83
2022/03/07 04:58:23;;;;;;;17.23;9.85;;;;;;;-0.76;80.02;94642.66;5040606;28;20124;-82
2022/03/07 05:00:49;;;;;;;20.73;9.30;;;;;;;0.27;80.86;94821.53;5057680;28;20058;-82
2022/03/07 05:03:14;;;;;;;17.15;9.23;;;;;;;-0.29;80.76;94722.69;5059119;28;20188;-82
2022/03/07 05:05:40;;;;;;;20.65;10.48;;;;;;;1.08;80.59;94912.50;5040535;28;20522;-82
2022/03/07 05:08:05;;;;;;;20.60;11.25;;;;;;;0.18;80.26;94788.94;5040474;28;20037;-83
2022/03/07 05:10:31;;;;;;;24.15;12.60;;;;;;;0.28;81.11;94799.66;5060233;28;20067;-83
2022/03/07 05:12:57;;;;;;;21.52;12.35;;;;;;;0.30;80.49;94825.53;5058314;28;20036;-83
2022/03/07 05:15:23;;;;;;;23.45;12.18;;;;;;;0.61;80.69;94887.19;5057574;28;20043;-83
2022/03/07 05:17:53;;;;;;;21.55;11.80;;;;;;;0.08;80.88;94791.25;5039200;28;20033;-83
2022/03/07 05:20:19;;;;;;;22.15;11.50;;;;;;;0.10;81.00;94799.66;5057320;28;20491;-84
2022/03/07 05:22:45;;;;;;;26.30;12.25;;;;;;;-0.20;80.58;94731.81;5060059;28;20121;-83
2022/03/07 05:25:12;;;;;;;24.45;12.95;;;;;;;0.76;80.51;94877.94;5042122;28;20069;-83
2022/03/07 05:27:38;;;;;;;23.35;12.55;;;;;;;1.01;80.05;94893.50;5040131;28;20134;-83
2022/03/07 05:30:06;;;;;;;27.13;13.55;;;;;;;0.94;80.33;94871.91;5074644;28;20041;-83
2022/03/07 05:32:32;;;;;;;26.38;13.43;;;;;;;0.43;80.12;94778.41;5073829;28;20044;-83
2022/03/07 05:34:58;;;;;;;24.88;11.45;;;;;;;0.98;81.02;94919.28;5058428;28;20202;-83
2022/03/07 05:37:24;;;;;;;23.67;12.60;;;;;;;0.61;81.32;94848.03;5041584;28;20419;-83
2022/03/07 05:39:49;;;;;;;29.15;13.23;;;;;;;0.34;80.96;94795.38;5040440;28;20464;-82
2022/03/07 05:42:15;;;;;;;23.70;11.77;;;;;;;0.05;80.96;94754.41;5059503;28;20029;-82
2022/03/07 05:44:40;;;;;;;25.10;13.00;;;;;;;-0.54;80.93;94641.22;5040494;28;20043;-82
2022/03/07 05:47:06;;;;;;;24.15;12.52;;;;;;;0.97;80.70;94879.31;5056369;28;20036;-82
2022/03/07 05:49:31;;;;;;;25.48;14.77;;;;;;;0.43;80.41;94778.41;5072957;28;20037;-83
2022/03/07 05:51:57;;;;;;;29.67;13.80;;;;;;;0.65;80.19;94802.22;5058633;28;20037;-83
2022/03/07 05:54:22;;;;;;;32.17;12.70;;;;;;;0.14;79.77;94756.50;5054753;28;20087;-80
2022/03/07 05:56:48;;;;;;;28.73;13.75;;;;;;;0.77;80.31;94835.16;5036804;28;20455;-80
2022/03/07 05:59:13;;;;;;;27.20;13.23;;;;;;;0.71;79.69;94823.00;5057138;28;20076;-80
2022/03/07 06:01:39;;;;;;;26.50;12.98;;;;;;;1.14;79.82;94863.81;5056649;28;20072;-82
2022/03/07 06:04:12;;;;;;;23.85;13.38;;;;;;;0.77;79.42;94816.88;5038934;28;20419;-82
2022/03/07 06:06:38;;;;;;;40.20;14.98;;;;;;;0.49;79.65;94772.31;5056400;28;20094;-83
2022/03/07 06:09:04;;;;;;;30.55;14.70;;;;;;;1.38;79.84;94916.91;5056408;28;20037;-84
2022/03/07 06:11:29;;;;;;;26.50;15.30;;;;;;;0.76;79.83;94810.06;5057581;28;20044;-83
2022/03/07 06:13:55;;;;;;;28.85;14.93;;;;;;;0.41;80.01;94796.09;5057073;28;20044;-83
2022/03/07 06:16:20;;;;;;;29.85;15.20;;;;;;;0.64;80.01;94806.63;5055631;28;20036;-83
2022/03/07 06:23:56;;;;;;;27.13;15.10;;;;;;;1.13;79.59;94883.91;5618823;23;20056;-83
2022/03/07 06:26:21;;;;;;;31.95;15.25;;;;;;;0.80;79.18;94843.56;5015579;28;20038;-82
2022/03/07 06:28:47;;;;;;;36.65;17.33;;;;;;;0.51;80.06;94792.97;5014948;28;20034;-84
2022/03/07 06:31:12;;;;;;;37.97;18.65;;;;;;;0.81;79.31;94842.56;5015219;28;20447;-83
2022/03/07 06:33:38;;;;;;;33.80;17.70;;;;;;;0.27;79.29;94758.16;5011431;28;20030;-83
2022/03/07 06:36:07;;;;;;;23.50;11.18;;;;;;;0.31;79.50;94807.03;5011299;28;20029;-84
2022/03/07 06:38:34;;;;;;;20.25;11.63;;;;;;;1.29;79.98;94931.31;5010152;28;20033;-84
2022/03/07 06:40:59;;;;;;;19.65;11.88;;;;;;;-1.01;79.67;94607.06;5010158;28;20030;-83
2022/03/07 06:43:25;;;;;;;20.05;10.43;;;;;;;0.48;80.94;94850.78;5010167;28;20040;-83
2022/03/07 06:45:52;;;;;;;22.25;12.70;;;;;;;0.81;80.12;94866.06;5011985;28;20037;-84
2022/03/07 06:48:17;;;;;;;20.48;10.35;;;;;;;1.15;80.76;94930.69;5011264;28;20064;-84
2022/03/07 06:50:43;;;;;;;20.75;11.88;;;;;;;0.54;80.27;94797.72;5011288;28;20030;-84
2022/03/07 06:53:08;;;;;;;18.80;11.07;;;;;;;0.91;79.84;94853.28;5027941;28;20061;-84
2022/03/07 06:55:34;;;;;;;23.52;11.13;;;;;;;1.09;79.76;94861.06;5016910;28;20073;-84
2022/03/07 06:57:59;;;;;;;19.70;11.23;;;;;;;0.35;79.52;94727.34;5012599;28;20049;-84
2022/03/07 07:00:25;;;;;;;22.13;11.95;;;;;;;1.04;79.47;94824.38;5014566;28;20502;-84
2022/03/07 07:02:50;;;;;;;23.90;12.27;;;;;;;0.79;79.32;94782.75;5013500;28;20145;-84
2022/03/07 07:05:16;;;;;;;26.08;14.15;;;;;;;1.75;79.26;94928.84;5012631;28;20120;-84
2022/03/07 07:07:44;;;;;;;23.38;13.50;;;;;;;1.31;78.89;94824.75;5012986;28;20038;-84
2022/03/07 07:10:11;;;;;;;22.92;12.30;;;;;;;1.32;79.72;94840.22;5014027;28;20060;-84
2022/03/07 07:12:37;;;;;;;25.55;14.32;;;;;;;1.23;79.69;94833.72;5018457;28;20037;-84
2022/03/07 07:15:06;;;;;;;24.67;13.40;;;;;;;1.85;79.14;94936.13;5019033;28;20499;-84
2022/03/07 07:17:33;;;;;;;26.38;14.82;;;;;;;1.41;78.94;94844.09;5020396;28;20038;-86
2022/03/07 07:19:59;;;;;;;26.38;13.57;;;;;;;1.38;78.59;94873.28;5020217;28;20091;-83
2022/03/07 07:22:24;;;;;;;23.40;14.05;;;;;;;0.99;79.55;94804.13;5019607;28;20026;-84
2022/03/07 07:24:51;;;;;;;20.15;11.80;;;;;;;1.18;79.42;94820.53;4966588;28;1215362;-84
2022/03/07 07:27:17;;;;;;;24.38;12.32;;;;;;;1.44;78.90;94889.91;5015324;28;20111;-84
2022/03/07 07:29:42;;;;;;;24.85;13.38;;;;;;;1.62;78.92;94905.50;5017683;28;20038;-83
2022/03/07 07:32:08;;;;;;;21.45;12.70;;;;;;;1.51;78.26;94878.34;5018893;28;20574;-82
2022/03/07 07:34:33;;;;;;;25.45;12.13;;;;;;;-0.53;78.42;94543.81;5017263;28;20205;-83
2022/03/07 07:36:59;;;;;;;21.13;11.80;;;;;;;0.35;77.65;94683.00;5018345;28;20040;-82
2022/03/07 07:39:25;;;;;;;22.52;12.45;;;;;;;-0.04;78.65;94626.97;5019548;28;20121;-83
2022/03/07 07:41:50;;;;;;;19.70;11.13;;;;;;;1.24;78.84;94852.81;5018125;28;20026;-82
2022/03/07 07:44:16;;;;;;;22.08;10.63;;;;;;;1.35;78.49;94836.38;5019132;28;20022;-83
2022/03/07 07:46:42;;;;;;;21.25;11.10;;;;;;;2.00;78.97;94927.84;5017163;28;20041;-83
2022/03/07 07:49:08;;;;;;;21.92;11.20;;;;;;;1.11;78.50;94772.84;5018347;28;20053;-83
2022/03/07 07:51:33;;;;;;;23.27;11.18;;;;;;;1.27;78.50;94787.06;5017887;28;20038;-84
2022/03/07 07:54:00;;;;;;;19.02;10.57;;;;;;;1.30;78.68;94817.97;5017953;28;20078;-84
2022/03/07 07:56:26;;;;;;;14.73;8.32;;;;;;;2.11;77.63;94946.19;5019180;28;20537;-84
2022/03/07 07:58:51;;;;;;;18.08;9.35;;;;;;;2.16;77.59;94927.19;5019429;28;20117;-84
2022/03/07 08:01:17;;;;;;;19.00;11.30;;;;;;;1.50;77.64;94829.69;5018951;28;20042;-84
2022/03/07 08:03:42;;;;;;;19.10;10.27;;;;;;;2.12;77.55;94937.31;5019384;28;20030;-84
2022/03/07 08:06:08;;;;;;;27.75;13.27;;;;;;;1.85;77.62;94866.31;5020326;28;20026;-84
2022/03/07 08:08:33;;;;;;;30.83;15.38;;;;;;;1.91;76.93;94896.78;5018648;28;20038;-83
2022/03/07 08:10:59;;;;;;;23.00;13.00;;;;;;;1.66;78.64;94846.53;5019740;28;20286;-84
2022/03/07 08:13:24;;;;;;;23.13;11.00;;;;;;;1.14;77.59;94757.50;5019365;28;20623;-83
2022/03/07 08:15:50;;;;;;;16.98;9.52;;;;;;;2.52;77.08;94936.59;5018101;28;20061;-83
2022/03/07 08:18:17;;;;;;;15.95;10.20;;;;;;;1.72;76.40;94800.38;5020271;28;20081;-83
2022/03/07 08:20:43;;;;;;;17.30;9.85;;;;;;;2.47;76.18;94907.72;5020836;28;20041;-84
2022/03/07 08:23:09;;;;;;;16.45;9.52;;;;;;;2.88;76.18;94953.88;5020443;28;20073;-83
2022/03/07 08:25:34;;;;;;;17.90;11.15;;;;;;;2.39;76.83;94876.66;5021346;28;20088;-83
2022/03/07 08:28:00;;;;;;;17.02;9.30;;;;;;;2.65;75.82;94897.91;5021918;28;20100;-83
2022/03/07 08:30:28;;;;;;;15.27;9.07;;;;;;;2.74;75.08;94900.19;5005301;28;20503;-82
2022/03/07 08:32:54;;;;;;;12.82;7.68;;;;;;;2.95;74.58;94971.06;5018385;28;20048;-83
2022/03/07 08:35:20;;;;;;;17.35;9.50;;;;;;;3.02;74.87;94979.59;5019155;28;20042;-84
2022/03/07 08:37:48;;;;;;;15.90;8.65;;;;;;;1.75;74.33;94832.13;5019243;28;20065;-83
2022/03/07 08:40:17;;;;;;;15.55;8.25;;;;;;;2.48;74.32;94910.09;5018039;28;20594;-83
2022/03/07 08:42:44;;;;;;;19.88;10.93;;;;;;;2.50;75.37;94918.53;5017381;28;20030;-84
2022/03/07 08:45:10;;;;;;;21.75;12.77;;;;;;;2.62;74.66;94911.44;5016176;28;20045;-84
2022/03/07 08:47:37;;;;;;;27.98;13.30;;;;;;;2.26;74.51;94833.22;5015674;28;20425;-83
2022/03/07 08:50:05;;;;;;;21.98;12.77;;;;;;;2.96;74.38;94937.81;5017467;28;20077;-83
2022/03/07 08:52:30;;;;;;;23.52;13.70;;;;;;;2.49;73.79;94859.34;5016961;28;20082;-84
2022/03/07 08:54:56;;;;;;;29.02;15.00;;;;;;;2.64;75.14;94892.91;5019193;28;20034;-83
2022/03/07 08:57:22;;;;;;;31.38;15.63;;;;;;;1.35;74.10;94672.56;5018745;28;20045;-83
2022/03/07 08:59:47;;;;;;;27.02;15.13;;;;;;;2.46;74.28;94841.47;5019758;28;20488;-84
2022/03/07 09:02:13;;;;;;;27.60;15.68;;;;;;;2.04;73.25;94833.03;5032008;28;20059;-83
2022/03/07 09:04:42;;;;;;;23.45;13.55;;;;;;;2.69;74.27;94911.31;5016348;28;20038;-83
2022/03/07 09:07:08;;;;;;;15.23;8.77;;;;;;;2.33;73.17;94873.94;5018118;28;20033;-83
2022/03/07 09:09:34;;;;;;;18.27;9.25;;;;;;;2.40;73.19;94857.31;5019121;28;20037;-83
2022/03/07 09:12:01;;;;;;;15.13;8.80;;;;;;;2.50;73.37;94881.88;5017511;28;20030;-83
2022/03/07 09:14:27;;;;;;;14.13;8.90;;;;;;;3.07;73.18;94956.09;5015839;28;20042;-84
2022/03/07 09:16:52;;;;;;;16.83;9.75;;;;;;;2.85;73.01;94920.28;5016614;28;20044;-83
2022/03/07 09:19:18;;;;;;;33.28;17.27;;;;;;;2.94;74.13;94959.00;5016351;28;20042;-84
2022/03/07 09:21:44;;;;;;;30.88;16.52;;;;;;;0.86;73.78;94652.13;5017147;28;20042;-84
2022/03/07 09:24:09;;;;;;;38.70;19.20;;;;;;;2.58;74.07;94941.75;5015681;28;20049;-84
2022/03/07 09:26:35;;;;;;;36.40;18.42;;;;;;;2.01;75.32;94898.06;5016168;28;20044;-84
2022/03/07 09:29:01;;;;;;;36.38;18.13;;;;;;;1.97;74.63;94892.50;5017344;28;20064;-83
2022/03/07 09:31:26;;;;;;;37.50;19.95;;;;;;;2.50;75.08;94954.38;5017513;28;20372;-84
2022/03/07 09:33:52;;;;;;;37.53;18.88;;;;;;;2.20;75.20;94904.78;5019117;28;20038;-83
2022/03/07 09:36:19;;;;;;;30.88;15.90;;;;;;;2.46;74.19;94955.84;5016553;28;20132;-83
2022/03/07 09:38:45;;;;;;;32.90;17.27;;;;;;;0.93;75.91;94752.81;5002403;28;20056;-84
2022/03/07 09:41:11;;;;;;;36.42;17.95;;;;;;;1.51;75.92;94814.81;5016097;28;20037;-84
2022/03/07 09:43:40;;;;;;;27.90;14.77;;;;;;;1.43;73.82;94820.38;5017985;28;20429;-82
2022/03/07 09:46:05;;;;;;;26.45;13.80;;;;;;;0.35;73.58;94695.25;5016212;28;20046;-83
2022/03/07 09:48:31;;;;;;;31.63;14.05;;;;;;;0.48;74.62;94751.66;5016131;28;20038;-83
2022/03/07 09:50:58;;;;;;;25.98;13.73;;;;;;;1.71;75.75;94898.13;5015316;28;20053;-83
2022/03/07 09:53:23;;;;;;;28.08;13.25;;;;;;;1.62;75.68;94875.94;5015665;28;20034;-84
2022/03/07 09:55:49;;;;;;;28.55;12.85;;;;;;;2.15;74.74;94951.75;5015986;28;20040;-84
2022/03/07 09:58:15;;;;;;;22.95;11.48;;;;;;;2.23;75.29;94938.31;5018780;28;20558;-84
2022/03/07 10:00:43;;;;;;;22.13;11.93;;;;;;;2.22;73.72;94937.53;5016313;28;20041;-84
2022/03/07 10:03:11;;;;;;;21.40;11.10;;;;;;;2.05;75.77;94943.69;5016135;28;20188;-84
2022/03/07 10:05:39;;;;;;;27.23;14.00;;;;;;;1.81;75.97;94893.16;5015124;28;20034;-83
2022/03/07 10:08:07;;;;;;;20.85;11.02;;;;;;;1.18;76.62;94812.72;5015453;28;20057;-82
2022/03/07 10:10:36;;;;;;;22.67;11.15;;;;;;;2.03;75.38;94916.94;5013637;28;20056;-82
2022/03/07 10:13:07;;;;;;;23.20;11.45;;;;;;;2.16;75.68;94943.66;5016598;28;20454;-82
2022/03/07 10:15:33;;;;;;;29.42;13.65;;;;;;;1.48;73.85;94850.03;5017209;28;20045;-83
2022/03/07 10:17:59;;;;;;;21.02;11.20;;;;;;;1.69;74.04;94885.28;5032282;28;20037;-83
2022/03/07 10:20:26;;;;;;;25.23;12.60;;;;;;;2.23;73.12;94959.25;5018665;28;20068;-83
2022/03/07 10:22:54;;;;;;;25.73;14.20;;;;;;;2.24;73.86;94985.19;5018369;28;20038;-84
2022/03/07 10:25:28;;;;;;;23.95;13.20;;;;;;;2.16;74.03;94920.13;5016184;28;20111;-83
2022/03/07 10:27:55;;;;;;;15.52;9.20;;;;;;;2.08;73.16;94941.38;5014883;28;20157;-83
2022/03/07 10:30:24;;;;;;;20.60;11.35;;;;;;;2.35;72.78;94933.91;5016222;28;20064;-83
2022/03/07 10:33:00;;;;;;;14.70;8.23;;;;;;;2.33;72.44;94931.50;5016667;28;20119;-84
2022/03/07 10:35:40;;;;;;;10.65;7.40;;;;;;;1.32;73.00;94781.94;2331041;28;10022887;-82
2022/03/07 10:38:20;;;;;;;35.75;10.15;;;;;;;1.59;73.12;94847.66;3632103;28;10001171;-83
2022/03/07 10:40:51;;;;;;;19.30;9.70;;;;;;;2.35;73.69;94915.59;5017473;28;20129;-84
2022/03/07 10:43:18;;;;;;;13.05;7.22;;;;;;;1.26;71.91;94796.72;5019070;28;20101;-84
2022/03/07 10:46:02;;;;;;;17.02;8.15;;;;;;;1.73;72.59;94855.06;5017127;28;20069;-84
2022/03/07 10:48:39;;;;;;;18.15;8.80;;;;;;;1.53;72.59;94807.53;5014735;28;20097;-83
2022/03/07 10:51:05;;;;;;;18.25;8.48;;;;;;;2.00;72.07;94860.63;5014192;28;20049;-84
2022/03/07 10:53:40;;;;;;;12.30;7.35;;;;;;;0.97;72.31;94709.59;5014263;28;20025;-84
2022/03/07 10:56:05;;;;;;;13.10;6.05;;;;;;;1.81;73.12;94839.06;5016387;28;20026;-84
2022/03/07 10:58:31;;;;;;;7.97;4.70;;;;;;;0.77;70.94;94696.03;5016774;28;20030;-84
2022/03/07 11:01:01;;;;;;;8.50;5.85;;;;;;;2.13;71.63;94891.03;5018134;28;20030;-84
2022/03/07 11:03:29;;;;;;;8.82;5.97;;;;;;;1.66;71.86;94832.66;5016235;28;20480;-84
2022/03/07 11:05:56;;;;;;;13.43;8.27;;;;;;;1.59;73.33;94827.56;5019569;28;20078;-84
2022/03/07 11:08:23;;;;;;;14.32;7.30;;;;;;;1.31;73.25;94789.00;5017117;28;20064;-84
2022/03/07 11:10:54;;;;;;;16.95;8.60;;;;;;;1.83;74.45;94833.59;5017680;28;20566;-84
2022/03/07 11:13:25;;;;;;;;;;;;;;;2.25;72.86;94918.78;5015317;28;20034;-84
2022/03/07 11:15:53;;;;;;;21.23;9.68;;;;;;;1.33;71.86;94794.00;5017102;28;19917;-84
2022/03/07 11:18:25;;;;;;;15.52;9.90;;;;;;;-0.59;73.08;94482.19;5015595;28;20133;-83
2022/03/07 11:20:52;;;;;;;13.55;7.22;;;;;;;-0.19;73.77;94564.00;5016328;28;20045;-83
2022/03/07 11:23:21;;;;;;;14.00;7.80;;;;;;;-1.82;71.60;94396.59;5015959;28;20018;-84
2022/03/07 11:25:52;;;;;;;20.80;11.32;;;;;;;0.07;73.38;94604.56;5016090;28;20080;-84
2022/03/07 11:28:17;;;;;;;16.90;8.25;;;;;;;-1.72;73.14;94328.53;5013568;28;20480;-83